sensor_id;sensor_type;location;lat;lon;timestamp;P1;durP1;ratioP1;P2;durP2;ratioP2
14209;SDS011;7188;56.070;12.698;2023-11-19T00:00:24;3.53;;;2.10;;
14209;SDS011;7188;56.070;12.698;2023-11-19T00:02:50;1.63;;;1.53;;
14209;SDS011;7188;56.070;12.698;2023-11-19T00:05:16;2.03;;;1.93;;
14209;SDS011;7188;56.070;12.698;2023-11-19T00:07:41;3.90;;;1.80;;
14209;SDS011;7188;56.070;12.698;2023-11-19T00:10:10;2.40;;;1.60;;
14209;SDS011;7188;56.070;12.698;2023-11-19T00:12:37;2.07;;;1.87;;
14209;SDS011;7188;56.070;12.698;2023-11-19T00:15:05;2.13;;;1.60;;
14209;SDS011;7188;56.070;12.698;2023-11-19T00:17:31;2.37;;;1.70;;
14209;SDS011;7188;56.070;12.698;2023-11-19T00:19:57;1.80;;;1.70;;
14209;SDS011;7188;56.070;12.698;2023-11-19T00:22:29;2.33;;;2.13;;
14209;SDS011;7188;56.070;12.698;2023-11-19T00:24:54;3.80;;;1.73;;
14209;SDS011;7188;56.070;12.698;2023-11-19T00:27:20;1.73;;;1.63;;
14209;SDS011;7188;56.070;12.698;2023-11-19T00:29:46;1.90;;;1.77;;
14209;SDS011;7188;56.070;12.698;2023-11-19T00:32:24;2.30;;;1.70;;
14209;SDS011;7188;56.070;12.698;2023-11-19T00:34:49;1.80;;;1.70;;
14209;SDS011;7188;56.070;12.698;2023-11-19T00:37:15;2.17;;;1.97;;
14209;SDS011;7188;56.070;12.698;2023-11-19T00:39:41;1.90;;;1.80;;
14209;SDS011;7188;56.070;12.698;2023-11-19T00:42:10;1.70;;;1.60;;
14209;SDS011;7188;56.070;12.698;2023-11-19T00:44:35;1.90;;;1.80;;
14209;SDS011;7188;56.070;12.698;2023-11-19T00:47:01;2.83;;;1.63;;
14209;SDS011;7188;56.070;12.698;2023-11-19T00:49:27;2.27;;;2.07;;
14209;SDS011;7188;56.070;12.698;2023-11-19T00:51:53;1.83;;;1.70;;
14209;SDS011;7188;56.070;12.698;2023-11-19T00:54:18;2.07;;;1.97;;
14209;SDS011;7188;56.070;12.698;2023-11-19T00:56:44;2.63;;;1.90;;
14209;SDS011;7188;56.070;12.698;2023-11-19T00:59:10;2.30;;;2.00;;
14209;SDS011;7188;56.070;12.698;2023-11-19T01:01:35;1.83;;;1.73;;
14209;SDS011;7188;56.070;12.698;2023-11-19T01:04:01;2.00;;;1.90;;
14209;SDS011;7188;56.070;12.698;2023-11-19T01:06:30;2.00;;;1.80;;
14209;SDS011;7188;56.070;12.698;2023-11-19T01:08:56;2.63;;;1.60;;
14209;SDS011;7188;56.070;12.698;2023-11-19T01:11:22;1.97;;;1.73;;
14209;SDS011;7188;56.070;12.698;2023-11-19T01:13:49;2.10;;;1.90;;
14209;SDS011;7188;56.070;12.698;2023-11-19T01:16:15;1.70;;;1.60;;
14209;SDS011;7188;56.070;12.698;2023-11-19T01:18:41;1.57;;;1.47;;
14209;SDS011;7188;56.070;12.698;2023-11-19T01:21:06;1.33;;;1.23;;
14209;SDS011;7188;56.070;12.698;2023-11-19T01:23:33;1.70;;;1.33;;
14209;SDS011;7188;56.070;12.698;2023-11-19T01:25:59;4.80;;;1.33;;
14209;SDS011;7188;56.070;12.698;2023-11-19T01:28:25;1.43;;;1.43;;
14209;SDS011;7188;56.070;12.698;2023-11-19T01:30:51;1.30;;;1.13;;
14209;SDS011;7188;56.070;12.698;2023-11-19T01:33:16;1.90;;;1.30;;
14209;SDS011;7188;56.070;12.698;2023-11-19T01:35:42;1.77;;;1.67;;
14209;SDS011;7188;56.070;12.698;2023-11-19T01:38:07;2.80;;;1.40;;
14209;SDS011;7188;56.070;12.698;2023-11-19T01:40:36;1.60;;;1.50;;
14209;SDS011;7188;56.070;12.698;2023-11-19T01:43:03;1.50;;;1.40;;
14209;SDS011;7188;56.070;12.698;2023-11-19T01:45:29;1.50;;;1.40;;
14209;SDS011;7188;56.070;12.698;2023-11-19T01:47:56;1.93;;;1.73;;
14209;SDS011;7188;56.070;12.698;2023-11-19T01:50:23;2.03;;;1.70;;
14209;SDS011;7188;56.070;12.698;2023-11-19T01:52:53;2.60;;;1.43;;
14209;SDS011;7188;56.070;12.698;2023-11-19T01:55:22;1.53;;;1.43;;
14209;SDS011;7188;56.070;12.698;2023-11-19T01:57:49;1.53;;;1.43;;
14209;SDS011;7188;56.070;12.698;2023-11-19T02:00:16;2.33;;;1.57;;
14209;SDS011;7188;56.070;12.698;2023-11-19T02:02:44;1.77;;;1.00;;
14209;SDS011;7188;56.070;12.698;2023-11-19T02:05:11;1.17;;;1.07;;
14209;SDS011;7188;56.070;12.698;2023-11-19T02:07:38;1.93;;;1.77;;
14209;SDS011;7188;56.070;12.698;2023-11-19T02:10:04;1.33;;;1.23;;
14209;SDS011;7188;56.070;12.698;2023-11-19T02:12:30;1.73;;;1.63;;
14209;SDS011;7188;56.070;12.698;2023-11-19T02:15:03;1.53;;;1.43;;
14209;SDS011;7188;56.070;12.698;2023-11-19T02:17:29;2.87;;;1.47;;
14209;SDS011;7188;56.070;12.698;2023-11-19T02:20:05;1.73;;;1.63;;
14209;SDS011;7188;56.070;12.698;2023-11-19T02:22:34;1.77;;;1.67;;
14209;SDS011;7188;56.070;12.698;2023-11-19T02:25:00;3.27;;;1.77;;
14209;SDS011;7188;56.070;12.698;2023-11-19T02:27:51;1.97;;;1.80;;
14209;SDS011;7188;56.070;12.698;2023-11-19T02:30:22;1.77;;;1.53;;
14209;SDS011;7188;56.070;12.698;2023-11-19T02:32:57;2.37;;;1.63;;
14209;SDS011;7188;56.070;12.698;2023-11-19T02:35:25;2.03;;;1.93;;
14209;SDS011;7188;56.070;12.698;2023-11-19T02:37:51;2.17;;;1.77;;
14209;SDS011;7188;56.070;12.698;2023-11-19T02:40:17;2.80;;;2.10;;
14209;SDS011;7188;56.070;12.698;2023-11-19T02:42:43;2.10;;;1.80;;
14209;SDS011;7188;56.070;12.698;2023-11-19T02:45:09;1.83;;;1.73;;
14209;SDS011;7188;56.070;12.698;2023-11-19T02:47:39;1.50;;;1.47;;
14209;SDS011;7188;56.070;12.698;2023-11-19T02:50:07;2.73;;;2.10;;
14209;SDS011;7188;56.070;12.698;2023-11-19T02:52:39;2.10;;;1.90;;
14209;SDS011;7188;56.070;12.698;2023-11-19T02:55:06;3.47;;;2.10;;
14209;SDS011;7188;56.070;12.698;2023-11-19T02:57:35;2.30;;;2.10;;
14209;SDS011;7188;56.070;12.698;2023-11-19T03:00:01;2.43;;;2.27;;
14209;SDS011;7188;56.070;12.698;2023-11-19T03:02:37;3.87;;;2.30;;
14209;SDS011;7188;56.070;12.698;2023-11-19T03:05:11;3.50;;;2.40;;
14209;SDS011;7188;56.070;12.698;2023-11-19T03:07:39;3.30;;;2.73;;
14209;SDS011;7188;56.070;12.698;2023-11-19T03:10:09;4.37;;;2.30;;
14209;SDS011;7188;56.070;12.698;2023-11-19T03:12:38;3.67;;;2.73;;
14209;SDS011;7188;56.070;12.698;2023-11-19T03:15:10;3.33;;;2.53;;
14209;SDS011;7188;56.070;12.698;2023-11-19T03:17:40;6.27;;;3.23;;
14209;SDS011;7188;56.070;12.698;2023-11-19T03:20:06;3.17;;;2.87;;
14209;SDS011;7188;56.070;12.698;2023-11-19T03:22:34;3.33;;;3.03;;
14209;SDS011;7188;56.070;12.698;2023-11-19T03:25:02;3.73;;;3.07;;
14209;SDS011;7188;56.070;12.698;2023-11-19T03:27:27;4.07;;;3.63;;
14209;SDS011;7188;56.070;12.698;2023-11-19T03:29:53;6.00;;;4.10;;
14209;SDS011;7188;56.070;12.698;2023-11-19T03:32:18;7.00;;;4.00;;
14209;SDS011;7188;56.070;12.698;2023-11-19T03:34:45;5.87;;;4.13;;
14209;SDS011;7188;56.070;12.698;2023-11-19T03:37:10;5.13;;;4.10;;
14209;SDS011;7188;56.070;12.698;2023-11-19T03:39:36;7.87;;;4.40;;
14209;SDS011;7188;56.070;12.698;2023-11-19T03:42:02;6.50;;;4.70;;
14209;SDS011;7188;56.070;12.698;2023-11-19T03:44:28;5.27;;;4.47;;
14209;SDS011;7188;56.070;12.698;2023-11-19T03:46:54;8.37;;;5.50;;
14209;SDS011;7188;56.070;12.698;2023-11-19T03:49:19;8.40;;;5.23;;
14209;SDS011;7188;56.070;12.698;2023-11-19T03:51:45;6.90;;;5.50;;
14209;SDS011;7188;56.070;12.698;2023-11-19T03:54:11;8.03;;;5.00;;
14209;SDS011;7188;56.070;12.698;2023-11-19T03:56:36;8.70;;;5.60;;
14209;SDS011;7188;56.070;12.698;2023-11-19T03:59:02;9.80;;;6.63;;
14209;SDS011;7188;56.070;12.698;2023-11-19T04:01:28;12.27;;;6.70;;
14209;SDS011;7188;56.070;12.698;2023-11-19T04:03:53;9.80;;;5.70;;
14209;SDS011;7188;56.070;12.698;2023-11-19T04:06:20;8.93;;;6.20;;
14209;SDS011;7188;56.070;12.698;2023-11-19T04:08:46;10.97;;;6.73;;
14209;SDS011;7188;56.070;12.698;2023-11-19T04:11:12;11.37;;;6.40;;
14209;SDS011;7188;56.070;12.698;2023-11-19T04:13:37;9.80;;;6.57;;
14209;SDS011;7188;56.070;12.698;2023-11-19T04:16:03;13.13;;;6.90;;
14209;SDS011;7188;56.070;12.698;2023-11-19T04:18:29;12.43;;;7.27;;
14209;SDS011;7188;56.070;12.698;2023-11-19T04:20:56;14.10;;;7.60;;
14209;SDS011;7188;56.070;12.698;2023-11-19T04:23:21;11.87;;;7.80;;
14209;SDS011;7188;56.070;12.698;2023-11-19T04:25:47;12.83;;;7.33;;
14209;SDS011;7188;56.070;12.698;2023-11-19T04:28:13;13.57;;;8.43;;
14209;SDS011;7188;56.070;12.698;2023-11-19T04:30:38;14.17;;;8.60;;
14209;SDS011;7188;56.070;12.698;2023-11-19T04:33:04;14.63;;;8.90;;
14209;SDS011;7188;56.070;12.698;2023-11-19T04:35:30;12.37;;;7.97;;
14209;SDS011;7188;56.070;12.698;2023-11-19T04:37:56;15.97;;;9.33;;
14209;SDS011;7188;56.070;12.698;2023-11-19T04:40:22;11.57;;;8.37;;
14209;SDS011;7188;56.070;12.698;2023-11-19T04:42:48;16.50;;;8.63;;
14209;SDS011;7188;56.070;12.698;2023-11-19T04:45:14;15.33;;;9.70;;
14209;SDS011;7188;56.070;12.698;2023-11-19T04:47:47;14.53;;;9.43;;
14209;SDS011;7188;56.070;12.698;2023-11-19T04:50:13;15.27;;;9.53;;
14209;SDS011;7188;56.070;12.698;2023-11-19T04:52:38;13.77;;;10.37;;
14209;SDS011;7188;56.070;12.698;2023-11-19T04:55:10;14.60;;;9.67;;
14209;SDS011;7188;56.070;12.698;2023-11-19T04:57:37;13.00;;;9.10;;
14209;SDS011;7188;56.070;12.698;2023-11-19T05:00:04;14.17;;;8.73;;
14209;SDS011;7188;56.070;12.698;2023-11-19T05:02:30;15.20;;;9.23;;
14209;SDS011;7188;56.070;12.698;2023-11-19T05:04:56;15.83;;;9.87;;
14209;SDS011;7188;56.070;12.698;2023-11-19T05:07:22;14.20;;;8.90;;
14209;SDS011;7188;56.070;12.698;2023-11-19T05:09:47;12.53;;;8.27;;
14209;SDS011;7188;56.070;12.698;2023-11-19T05:12:13;12.37;;;8.83;;
14209;SDS011;7188;56.070;12.698;2023-11-19T05:14:39;14.00;;;9.30;;
14209;SDS011;7188;56.070;12.698;2023-11-19T05:17:04;14.93;;;8.63;;
14209;SDS011;7188;56.070;12.698;2023-11-19T05:19:30;12.60;;;9.00;;
14209;SDS011;7188;56.070;12.698;2023-11-19T05:21:55;10.67;;;8.63;;
14209;SDS011;7188;56.070;12.698;2023-11-19T05:24:21;12.30;;;8.67;;
14209;SDS011;7188;56.070;12.698;2023-11-19T05:26:47;10.93;;;8.37;;
14209;SDS011;7188;56.070;12.698;2023-11-19T05:29:15;11.27;;;8.20;;
14209;SDS011;7188;56.070;12.698;2023-11-19T05:31:40;11.63;;;7.67;;
14209;SDS011;7188;56.070;12.698;2023-11-19T05:34:06;10.83;;;7.53;;
14209;SDS011;7188;56.070;12.698;2023-11-19T05:36:32;12.83;;;8.60;;
14209;SDS011;7188;56.070;12.698;2023-11-19T05:38:58;10.07;;;7.70;;
14209;SDS011;7188;56.070;12.698;2023-11-19T05:41:23;11.93;;;7.90;;
14209;SDS011;7188;56.070;12.698;2023-11-19T05:43:49;10.37;;;8.00;;
14209;SDS011;7188;56.070;12.698;2023-11-19T05:46:14;11.20;;;7.80;;
14209;SDS011;7188;56.070;12.698;2023-11-19T05:48:41;10.20;;;8.50;;
14209;SDS011;7188;56.070;12.698;2023-11-19T05:51:07;13.47;;;8.00;;
14209;SDS011;7188;56.070;12.698;2023-11-19T05:53:33;10.90;;;8.17;;
14209;SDS011;7188;56.070;12.698;2023-11-19T05:55:59;13.07;;;9.23;;
14209;SDS011;7188;56.070;12.698;2023-11-19T05:58:28;14.47;;;8.87;;
14209;SDS011;7188;56.070;12.698;2023-11-19T06:00:55;11.10;;;8.70;;
14209;SDS011;7188;56.070;12.698;2023-11-19T06:03:21;12.73;;;8.37;;
14209;SDS011;7188;56.070;12.698;2023-11-19T06:05:47;11.47;;;8.50;;
14209;SDS011;7188;56.070;12.698;2023-11-19T06:08:16;13.23;;;8.23;;
14209;SDS011;7188;56.070;12.698;2023-11-19T06:10:42;11.60;;;8.43;;
14209;SDS011;7188;56.070;12.698;2023-11-19T06:13:08;10.30;;;8.83;;
14209;SDS011;7188;56.070;12.698;2023-11-19T06:15:36;12.13;;;8.23;;
14209;SDS011;7188;56.070;12.698;2023-11-19T06:18:02;11.93;;;8.17;;
14209;SDS011;7188;56.070;12.698;2023-11-19T06:20:32;13.60;;;9.60;;
14209;SDS011;7188;56.070;12.698;2023-11-19T06:22:58;12.27;;;9.43;;
14209;SDS011;7188;56.070;12.698;2023-11-19T06:25:43;12.23;;;9.03;;
14209;SDS011;7188;56.070;12.698;2023-11-19T06:28:08;13.50;;;10.33;;
14209;SDS011;7188;56.070;12.698;2023-11-19T06:30:34;14.43;;;9.20;;
14209;SDS011;7188;56.070;12.698;2023-11-19T06:33:01;14.63;;;10.13;;
14209;SDS011;7188;56.070;12.698;2023-11-19T06:38:12;15.07;;;10.40;;
14209;SDS011;7188;56.070;12.698;2023-11-19T06:40:38;18.53;;;10.53;;
14209;SDS011;7188;56.070;12.698;2023-11-19T06:43:06;17.20;;;12.00;;
14209;SDS011;7188;56.070;12.698;2023-11-19T06:45:33;14.60;;;10.37;;
14209;SDS011;7188;56.070;12.698;2023-11-19T06:48:02;15.37;;;11.67;;
14209;SDS011;7188;56.070;12.698;2023-11-19T06:50:29;14.80;;;10.97;;
14209;SDS011;7188;56.070;12.698;2023-11-19T06:52:55;17.43;;;11.47;;
14209;SDS011;7188;56.070;12.698;2023-11-19T06:55:21;22.17;;;12.27;;
14209;SDS011;7188;56.070;12.698;2023-11-19T06:57:47;19.00;;;13.23;;
14209;SDS011;7188;56.070;12.698;2023-11-19T07:00:12;19.60;;;13.10;;
14209;SDS011;7188;56.070;12.698;2023-11-19T07:02:38;17.10;;;12.93;;
14209;SDS011;7188;56.070;12.698;2023-11-19T07:05:13;21.87;;;13.77;;
14209;SDS011;7188;56.070;12.698;2023-11-19T07:07:39;19.37;;;13.03;;
14209;SDS011;7188;56.070;12.698;2023-11-19T07:10:05;21.67;;;13.83;;
14209;SDS011;7188;56.070;12.698;2023-11-19T07:12:34;22.37;;;14.77;;
14209;SDS011;7188;56.070;12.698;2023-11-19T07:15:00;20.07;;;13.00;;
14209;SDS011;7188;56.070;12.698;2023-11-19T07:17:29;19.30;;;13.57;;
14209;SDS011;7188;56.070;12.698;2023-11-19T07:19:55;18.83;;;13.30;;
14209;SDS011;7188;56.070;12.698;2023-11-19T07:22:25;21.60;;;15.23;;
14209;SDS011;7188;56.070;12.698;2023-11-19T07:24:51;21.37;;;13.90;;
14209;SDS011;7188;56.070;12.698;2023-11-19T07:27:18;19.33;;;14.13;;
14209;SDS011;7188;56.070;12.698;2023-11-19T07:29:44;19.47;;;14.90;;
14209;SDS011;7188;56.070;12.698;2023-11-19T07:32:10;19.33;;;14.43;;
14209;SDS011;7188;56.070;12.698;2023-11-19T07:34:36;21.67;;;13.80;;
14209;SDS011;7188;56.070;12.698;2023-11-19T07:37:01;22.27;;;14.13;;
14209;SDS011;7188;56.070;12.698;2023-11-19T07:39:28;20.07;;;14.43;;
14209;SDS011;7188;56.070;12.698;2023-11-19T07:41:54;22.97;;;14.37;;
14209;SDS011;7188;56.070;12.698;2023-11-19T07:44:20;20.47;;;14.30;;
14209;SDS011;7188;56.070;12.698;2023-11-19T07:46:46;19.93;;;13.90;;
14209;SDS011;7188;56.070;12.698;2023-11-19T07:49:13;19.37;;;13.97;;
14209;SDS011;7188;56.070;12.698;2023-11-19T07:51:39;19.67;;;13.93;;
14209;SDS011;7188;56.070;12.698;2023-11-19T07:54:05;18.63;;;14.10;;
14209;SDS011;7188;56.070;12.698;2023-11-19T07:56:33;18.57;;;12.97;;
14209;SDS011;7188;56.070;12.698;2023-11-19T07:59:00;17.50;;;12.33;;
14209;SDS011;7188;56.070;12.698;2023-11-19T08:01:26;19.40;;;13.67;;
14209;SDS011;7188;56.070;12.698;2023-11-19T08:03:52;21.33;;;13.50;;
14209;SDS011;7188;56.070;12.698;2023-11-19T08:06:18;21.13;;;14.47;;
14209;SDS011;7188;56.070;12.698;2023-11-19T08:08:43;17.83;;;12.67;;
14209;SDS011;7188;56.070;12.698;2023-11-19T08:11:10;21.47;;;14.90;;
14209;SDS011;7188;56.070;12.698;2023-11-19T08:13:35;19.57;;;12.93;;
14209;SDS011;7188;56.070;12.698;2023-11-19T08:16:01;19.93;;;12.87;;
14209;SDS011;7188;56.070;12.698;2023-11-19T08:18:45;18.47;;;12.53;;
14209;SDS011;7188;56.070;12.698;2023-11-19T08:21:10;15.80;;;12.07;;
14209;SDS011;7188;56.070;12.698;2023-11-19T08:23:36;24.20;;;12.70;;
14209;SDS011;7188;56.070;12.698;2023-11-19T08:26:03;18.10;;;12.83;;
14209;SDS011;7188;56.070;12.698;2023-11-19T08:28:29;17.07;;;12.63;;
14209;SDS011;7188;56.070;12.698;2023-11-19T08:30:56;18.37;;;13.10;;
14209;SDS011;7188;56.070;12.698;2023-11-19T08:33:21;16.20;;;12.70;;
14209;SDS011;7188;56.070;12.698;2023-11-19T08:35:47;18.93;;;12.73;;
14209;SDS011;7188;56.070;12.698;2023-11-19T08:38:13;19.27;;;12.50;;
14209;SDS011;7188;56.070;12.698;2023-11-19T08:40:39;16.53;;;12.10;;
14209;SDS011;7188;56.070;12.698;2023-11-19T08:43:04;17.40;;;12.57;;
14209;SDS011;7188;56.070;12.698;2023-11-19T08:45:31;19.30;;;12.63;;
14209;SDS011;7188;56.070;12.698;2023-11-19T08:47:57;16.90;;;12.60;;
14209;SDS011;7188;56.070;12.698;2023-11-19T08:50:22;17.33;;;12.00;;
14209;SDS011;7188;56.070;12.698;2023-11-19T08:52:48;15.47;;;11.73;;
14209;SDS011;7188;56.070;12.698;2023-11-19T08:55:14;14.50;;;10.70;;
14209;SDS011;7188;56.070;12.698;2023-11-19T08:57:40;17.60;;;10.63;;
14209;SDS011;7188;56.070;12.698;2023-11-19T09:00:05;16.30;;;9.77;;
14209;SDS011;7188;56.070;12.698;2023-11-19T09:02:37;13.50;;;9.50;;
14209;SDS011;7188;56.070;12.698;2023-11-19T09:05:03;13.77;;;9.67;;
14209;SDS011;7188;56.070;12.698;2023-11-19T09:07:32;13.20;;;8.87;;
14209;SDS011;7188;56.070;12.698;2023-11-19T09:09:58;12.30;;;9.10;;
14209;SDS011;7188;56.070;12.698;2023-11-19T09:12:23;15.30;;;9.87;;
14209;SDS011;7188;56.070;12.698;2023-11-19T09:14:49;14.30;;;9.03;;
14209;SDS011;7188;56.070;12.698;2023-11-19T09:17:15;14.23;;;8.40;;
14209;SDS011;7188;56.070;12.698;2023-11-19T09:19:42;12.57;;;7.83;;
14209;SDS011;7188;56.070;12.698;2023-11-19T09:22:08;11.10;;;8.50;;
14209;SDS011;7188;56.070;12.698;2023-11-19T09:24:33;10.27;;;7.27;;
14209;SDS011;7188;56.070;12.698;2023-11-19T09:26:59;7.77;;;6.17;;
14209;SDS011;7188;56.070;12.698;2023-11-19T09:29:25;9.83;;;6.13;;
14209;SDS011;7188;56.070;12.698;2023-11-19T09:31:50;8.47;;;6.00;;
14209;SDS011;7188;56.070;12.698;2023-11-19T09:34:16;11.10;;;6.37;;
14209;SDS011;7188;56.070;12.698;2023-11-19T09:36:42;6.60;;;5.83;;
14209;SDS011;7188;56.070;12.698;2023-11-19T09:39:09;7.37;;;6.23;;
14209;SDS011;7188;56.070;12.698;2023-11-19T09:41:35;8.17;;;5.37;;
14209;SDS011;7188;56.070;12.698;2023-11-19T09:44:01;8.77;;;5.60;;
14209;SDS011;7188;56.070;12.698;2023-11-19T09:46:27;9.23;;;5.67;;
14209;SDS011;7188;56.070;12.698;2023-11-19T09:48:54;8.60;;;6.30;;
14209;SDS011;7188;56.070;12.698;2023-11-19T09:51:22;8.73;;;5.13;;
14209;SDS011;7188;56.070;12.698;2023-11-19T09:53:48;6.93;;;5.37;;
14209;SDS011;7188;56.070;12.698;2023-11-19T09:56:14;6.43;;;4.67;;
14209;SDS011;7188;56.070;12.698;2023-11-19T09:58:41;6.70;;;5.10;;
14209;SDS011;7188;56.070;12.698;2023-11-19T10:01:22;5.37;;;4.73;;
14209;SDS011;7188;56.070;12.698;2023-11-19T10:03:49;11.23;;;4.97;;
14209;SDS011;7188;56.070;12.698;2023-11-19T10:06:17;5.67;;;4.13;;
14209;SDS011;7188;56.070;12.698;2023-11-19T10:08:44;4.70;;;4.03;;
14209;SDS011;7188;56.070;12.698;2023-11-19T10:11:09;5.73;;;4.27;;
14209;SDS011;7188;56.070;12.698;2023-11-19T10:13:38;7.50;;;4.47;;
14209;SDS011;7188;56.070;12.698;2023-11-19T10:16:13;5.73;;;3.90;;
14209;SDS011;7188;56.070;12.698;2023-11-19T10:18:48;5.20;;;4.20;;
14209;SDS011;7188;56.070;12.698;2023-11-19T10:21:18;4.47;;;3.27;;
14209;SDS011;7188;56.070;12.698;2023-11-19T10:23:56;4.17;;;3.77;;
14209;SDS011;7188;56.070;12.698;2023-11-19T10:26:24;6.00;;;3.63;;
14209;SDS011;7188;56.070;12.698;2023-11-19T10:28:51;5.47;;;3.80;;
14209;SDS011;7188;56.070;12.698;2023-11-19T10:31:17;4.40;;;3.13;;
14209;SDS011;7188;56.070;12.698;2023-11-19T10:33:44;3.53;;;3.23;;
14209;SDS011;7188;56.070;12.698;2023-11-19T10:36:11;4.10;;;3.63;;
14209;SDS011;7188;56.070;12.698;2023-11-19T10:38:37;3.60;;;3.30;;
14209;SDS011;7188;56.070;12.698;2023-11-19T10:41:04;4.23;;;3.37;;
14209;SDS011;7188;56.070;12.698;2023-11-19T10:43:30;4.10;;;3.63;;
14209;SDS011;7188;56.070;12.698;2023-11-19T10:46:12;4.50;;;3.07;;
14209;SDS011;7188;56.070;12.698;2023-11-19T10:48:39;3.80;;;2.90;;
14209;SDS011;7188;56.070;12.698;2023-11-19T10:51:06;4.90;;;3.30;;
14209;SDS011;7188;56.070;12.698;2023-11-19T10:53:39;4.60;;;3.30;;
14209;SDS011;7188;56.070;12.698;2023-11-19T10:56:11;3.80;;;3.00;;
14209;SDS011;7188;56.070;12.698;2023-11-19T10:58:44;3.40;;;3.10;;
14209;SDS011;7188;56.070;12.698;2023-11-19T11:04:24;4.23;;;2.67;;
14209;SDS011;7188;56.070;12.698;2023-11-19T11:06:51;4.63;;;4.03;;
14209;SDS011;7188;56.070;12.698;2023-11-19T11:09:21;4.77;;;3.77;;
14209;SDS011;7188;56.070;12.698;2023-11-19T11:11:48;3.70;;;3.40;;
14209;SDS011;7188;56.070;12.698;2023-11-19T11:14:16;4.73;;;3.67;;
14209;SDS011;7188;56.070;12.698;2023-11-19T11:16:46;5.47;;;4.07;;
14209;SDS011;7188;56.070;12.698;2023-11-19T11:19:13;3.80;;;3.50;;
14209;SDS011;7188;56.070;12.698;2023-11-19T11:21:42;4.53;;;4.03;;
14209;SDS011;7188;56.070;12.698;2023-11-19T11:24:16;4.20;;;3.83;;
14209;SDS011;7188;56.070;12.698;2023-11-19T11:38:44;6.20;;;4.53;;
14209;SDS011;7188;56.070;12.698;2023-11-19T11:41:18;5.80;;;4.43;;
14209;SDS011;7188;56.070;12.698;2023-11-19T11:49:02;4.47;;;4.07;;
14209;SDS011;7188;56.070;12.698;2023-11-19T11:54:10;7.10;;;5.03;;
14209;SDS011;7188;56.070;12.698;2023-11-19T11:56:39;5.23;;;4.50;;
14209;SDS011;7188;56.070;12.698;2023-11-19T11:59:07;6.13;;;4.57;;
14209;SDS011;7188;56.070;12.698;2023-11-19T12:01:34;5.83;;;5.00;;
14209;SDS011;7188;56.070;12.698;2023-11-19T12:04:00;4.27;;;3.87;;
14209;SDS011;7188;56.070;12.698;2023-11-19T12:06:26;6.57;;;3.90;;
14209;SDS011;7188;56.070;12.698;2023-11-19T12:09:07;4.13;;;3.57;;
14209;SDS011;7188;56.070;12.698;2023-11-19T12:11:33;3.37;;;2.83;;
14209;SDS011;7188;56.070;12.698;2023-11-19T12:13:59;3.87;;;2.97;;
14209;SDS011;7188;56.070;12.698;2023-11-19T12:16:27;3.27;;;2.93;;
14209;SDS011;7188;56.070;12.698;2023-11-19T12:18:54;2.60;;;2.40;;
14209;SDS011;7188;56.070;12.698;2023-11-19T12:21:27;3.23;;;2.73;;
14209;SDS011;7188;56.070;12.698;2023-11-19T12:23:54;3.00;;;2.63;;
14209;SDS011;7188;56.070;12.698;2023-11-19T12:26:34;2.80;;;2.60;;
14209;SDS011;7188;56.070;12.698;2023-11-19T12:29:02;2.70;;;2.50;;
14209;SDS011;7188;56.070;12.698;2023-11-19T12:31:31;3.73;;;2.83;;
14209;SDS011;7188;56.070;12.698;2023-11-19T12:33:57;3.23;;;2.93;;
14209;SDS011;7188;56.070;12.698;2023-11-19T12:36:22;3.37;;;3.07;;
14209;SDS011;7188;56.070;12.698;2023-11-19T12:38:48;5.27;;;3.63;;
14209;SDS011;7188;56.070;12.698;2023-11-19T12:41:14;3.30;;;3.00;;
14209;SDS011;7188;56.070;12.698;2023-11-19T12:43:42;4.00;;;3.33;;
14209;SDS011;7188;56.070;12.698;2023-11-19T12:46:21;2.80;;;2.60;;
14209;SDS011;7188;56.070;12.698;2023-11-19T12:48:48;4.40;;;3.37;;
14209;SDS011;7188;56.070;12.698;2023-11-19T12:51:14;4.03;;;3.10;;
14209;SDS011;7188;56.070;12.698;2023-11-19T12:53:49;4.13;;;3.63;;
14209;SDS011;7188;56.070;12.698;2023-11-19T12:56:23;4.93;;;4.53;;
14209;SDS011;7188;56.070;12.698;2023-11-19T12:58:49;4.20;;;3.13;;
14209;SDS011;7188;56.070;12.698;2023-11-19T13:01:16;3.30;;;3.10;;
14209;SDS011;7188;56.070;12.698;2023-11-19T13:03:43;3.33;;;2.77;;
14209;SDS011;7188;56.070;12.698;2023-11-19T13:06:11;4.60;;;3.80;;
14209;SDS011;7188;56.070;12.698;2023-11-19T13:08:50;3.77;;;3.47;;
14209;SDS011;7188;56.070;12.698;2023-11-19T13:11:33;3.43;;;3.13;;
14209;SDS011;7188;56.070;12.698;2023-11-19T13:16:29;4.77;;;3.20;;
14209;SDS011;7188;56.070;12.698;2023-11-19T13:18:55;3.97;;;3.67;;
14209;SDS011;7188;56.070;12.698;2023-11-19T13:21:22;4.07;;;3.70;;
14209;SDS011;7188;56.070;12.698;2023-11-19T13:23:48;4.77;;;4.33;;
14209;SDS011;7188;56.070;12.698;2023-11-19T13:26:13;4.13;;;3.73;;
14209;SDS011;7188;56.070;12.698;2023-11-19T13:28:39;3.63;;;3.33;;
14209;SDS011;7188;56.070;12.698;2023-11-19T13:31:05;4.97;;;3.60;;
14209;SDS011;7188;56.070;12.698;2023-11-19T13:33:31;4.73;;;3.47;;
14209;SDS011;7188;56.070;12.698;2023-11-19T13:35:56;4.23;;;3.77;;
14209;SDS011;7188;56.070;12.698;2023-11-19T13:38:22;5.00;;;3.93;;
14209;SDS011;7188;56.070;12.698;2023-11-19T13:40:49;4.50;;;4.10;;
14209;SDS011;7188;56.070;12.698;2023-11-19T13:43:15;4.23;;;3.83;;
14209;SDS011;7188;56.070;12.698;2023-11-19T13:45:41;3.47;;;3.17;;
14209;SDS011;7188;56.070;12.698;2023-11-19T13:48:06;3.93;;;3.63;;
14209;SDS011;7188;56.070;12.698;2023-11-19T13:50:32;6.43;;;3.83;;
14209;SDS011;7188;56.070;12.698;2023-11-19T13:52:59;4.10;;;3.70;;
14209;SDS011;7188;56.070;12.698;2023-11-19T13:55:25;4.20;;;3.07;;
14209;SDS011;7188;56.070;12.698;2023-11-19T13:57:51;4.33;;;3.40;;
14209;SDS011;7188;56.070;12.698;2023-11-19T14:00:16;8.23;;;3.60;;
14209;SDS011;7188;56.070;12.698;2023-11-19T14:02:59;4.27;;;3.27;;
14209;SDS011;7188;56.070;12.698;2023-11-19T14:05:24;3.80;;;3.40;;
14209;SDS011;7188;56.070;12.698;2023-11-19T14:07:50;4.07;;;3.53;;
14209;SDS011;7188;56.070;12.698;2023-11-19T14:10:16;3.33;;;3.03;;
14209;SDS011;7188;56.070;12.698;2023-11-19T14:12:42;3.63;;;3.33;;
14209;SDS011;7188;56.070;12.698;2023-11-19T14:15:09;4.27;;;3.87;;
14209;SDS011;7188;56.070;12.698;2023-11-19T14:17:49;4.97;;;3.67;;
14209;SDS011;7188;56.070;12.698;2023-11-19T14:20:15;5.00;;;3.50;;
14209;SDS011;7188;56.070;12.698;2023-11-19T14:22:42;4.00;;;3.70;;
14209;SDS011;7188;56.070;12.698;2023-11-19T14:25:09;3.87;;;3.57;;
14209;SDS011;7188;56.070;12.698;2023-11-19T14:27:36;6.13;;;4.07;;
14209;SDS011;7188;56.070;12.698;2023-11-19T14:30:09;5.47;;;4.27;;
14209;SDS011;7188;56.070;12.698;2023-11-19T14:32:39;4.80;;;4.30;;
14209;SDS011;7188;56.070;12.698;2023-11-19T14:35:06;6.20;;;4.37;;
14209;SDS011;7188;56.070;12.698;2023-11-19T14:37:32;5.73;;;4.63;;
14209;SDS011;7188;56.070;12.698;2023-11-19T14:39:58;4.67;;;4.27;;
14209;SDS011;7188;56.070;12.698;2023-11-19T14:42:25;7.17;;;4.20;;
14209;SDS011;7188;56.070;12.698;2023-11-19T14:44:51;4.23;;;3.83;;
14209;SDS011;7188;56.070;12.698;2023-11-19T14:47:20;4.40;;;4.00;;
14209;SDS011;7188;56.070;12.698;2023-11-19T14:49:46;6.37;;;3.77;;
14209;SDS011;7188;56.070;12.698;2023-11-19T14:52:12;5.43;;;4.13;;
14209;SDS011;7188;56.070;12.698;2023-11-19T14:54:38;6.33;;;4.13;;
14209;SDS011;7188;56.070;12.698;2023-11-19T14:57:04;5.07;;;4.30;;
14209;SDS011;7188;56.070;12.698;2023-11-19T14:59:33;6.67;;;4.27;;
14209;SDS011;7188;56.070;12.698;2023-11-19T15:01:59;6.77;;;4.67;;
14209;SDS011;7188;56.070;12.698;2023-11-19T15:04:25;4.20;;;3.90;;
14209;SDS011;7188;56.070;12.698;2023-11-19T15:06:52;3.73;;;3.43;;
14209;SDS011;7188;56.070;12.698;2023-11-19T15:09:17;4.03;;;3.70;;